Time;durP1;ratioP1;P1;durP2;ratioP2;P2;SDS_P1;SDS_P2;PMS_P1;PMS_P2;Temp;Humidity;BMP_temperature;BMP_pressure;BME280_temperature;BME280_humidity;BME280_pressure;Samples;Min_cycle;Max_cycle;Signal;HPM_P1;HPM_P2
2024/01/09 00:02:10;;;;;;;14.98;6.95;;;-6.40;99.90;;;;;;6245106;22;20260;-85
2024/01/09 00:04:41;;;;;;;8.75;6.68;;;-6.40;99.90;;;;;;6245325;22;20159;-87
2024/01/09 00:07:08;;;;;;;10.85;6.82;;;-6.40;99.90;;;;;;6244918;22;20162;-86
2024/01/09 00:09:37;;;;;;;14.63;6.82;;;-6.40;99.90;;;;;;6244802;22;20177;-89
2024/01/09 00:12:04;;;;;;;8.55;6.53;;;-6.40;99.90;;;;;;6244290;22;20190;-88
2024/01/09 00:14:31;;;;;;;7.00;5.60;;;-6.40;99.90;;;;;;6239116;23;20175;-89
2024/01/09 00:16:58;;;;;;;12.23;6.88;;;-6.40;99.90;;;;;;6238243;22;20155;-87
2024/01/09 00:19:27;;;;;;;11.30;6.70;;;-6.30;99.90;;;;;;6245214;22;20203;-87
2024/01/09 00:21:56;;;;;;;9.07;6.32;;;-6.50;1.00;;;;;;6245202;22;20203;-89
2024/01/09 00:24:26;;;;;;;10.68;6.72;;;-6.50;1.00;;;;;;6231618;23;20222;-89
2024/01/09 00:26:55;;;;;;;9.05;6.40;;;-6.00;1.00;;;;;;6226172;23;20234;-89
2024/01/09 00:29:24;;;;;;;10.45;6.03;;;-6.50;1.00;;;;;;6226873;23;20175;-89
2024/01/09 00:31:51;;;;;;;6.93;5.65;;;-6.00;1.00;;;;;;6224021;23;20279;-89
2024/01/09 00:34:17;;;;;;;12.52;7.20;;;-6.50;1.00;;;;;;6223695;23;20179;-88
2024/01/09 00:36:44;;;;;;;12.00;7.17;;;-6.50;1.00;;;;;;6224544;23;20225;-89
2024/01/09 00:39:13;;;;;;;10.43;6.20;;;-6.50;1.00;;;;;;6225002;23;20394;-89
2024/01/09 00:41:40;;;;;;;9.43;6.57;;;-6.50;1.00;;;;;;6225080;23;20218;-90
2024/01/09 00:44:11;;;;;;;11.77;5.97;;;-6.50;1.00;;;;;;6228391;23;20182;-89
2024/01/09 00:46:38;;;;;;;11.48;6.50;;;-6.50;1.00;;;;;;6239815;22;20171;-88
2024/01/09 00:49:05;;;;;;;12.05;6.95;;;-6.30;1.00;;;;;;6243826;22;20156;-89
2024/01/09 00:51:32;;;;;;;11.63;7.38;;;-6.50;1.00;;;;;;6231729;22;20191;-89
2024/01/09 00:54:01;;;;;;;9.18;6.25;;;-6.60;1.00;;;;;;6225921;23;20174;-89
2024/01/09 00:56:29;;;;;;;13.73;6.30;;;-6.60;1.00;;;;;;6224933;23;20185;-89
2024/01/09 00:58:56;;;;;;;10.35;6.03;;;-6.60;1.00;;;;;;6223376;23;20257;-89
2024/01/09 01:01:23;;;;;;;9.25;6.43;;;-6.60;1.00;;;;;;6223248;23;20227;-89
2024/01/09 01:03:50;;;;;;;9.25;6.75;;;-6.60;1.00;;;;;;6224194;23;20177;-89
2024/01/09 01:06:17;;;;;;;6.75;5.55;;;-6.60;1.00;;;;;;6237268;23;20700;-89
2024/01/09 01:08:44;;;;;;;10.85;6.35;;;-6.60;1.00;;;;;;6242934;23;20204;-89
2024/01/09 01:11:11;;;;;;;9.35;6.95;;;-6.70;1.00;;;;;;6243878;22;20202;-88
2024/01/09 01:13:40;;;;;;;8.73;5.50;;;-6.70;1.00;;;;;;6233264;23;20171;-88
2024/01/09 01:16:07;;;;;;;13.15;7.30;;;-6.70;1.00;;;;;;6244096;22;20162;-89
2024/01/09 01:18:34;;;;;;;11.52;7.07;;;-6.70;1.00;;;;;;6242716;23;20175;-89
2024/01/09 01:21:01;;;;;;;11.43;6.88;;;-6.80;1.00;;;;;;6235860;22;20203;-89
2024/01/09 01:23:28;;;;;;;13.85;7.20;;;-6.80;1.00;;;;;;6228497;23;20233;-90
2024/01/09 01:25:55;;;;;;;9.00;7.13;;;-6.70;1.00;;;;;;6226391;23;20570;-89
2024/01/09 01:28:22;;;;;;;10.30;5.82;;;-6.80;1.00;;;;;;6226174;23;20179;-89
2024/01/09 01:30:50;;;;;;;11.50;6.63;;;-6.80;1.00;;;;;;6225706;23;20673;-89
2024/01/09 01:33:17;;;;;;;8.93;6.07;;;-6.80;1.00;;;;;;6224598;23;20171;-87
2024/01/09 01:35:44;;;;;;;15.82;7.38;;;-6.00;1.00;;;;;;6232625;23;20195;-89
2024/01/09 01:38:13;;;;;;;10.20;6.70;;;-6.90;1.00;;;;;;6228769;23;20266;-89
2024/01/09 01:40:40;;;;;;;9.10;7.07;;;-6.90;1.00;;;;;;6223535;23;20230;-89
2024/01/09 01:43:07;;;;;;;8.02;6.57;;;-6.90;1.00;;;;;;6222277;23;20182;-89
2024/01/09 01:45:34;;;;;;;10.48;6.60;;;-6.90;1.00;;;;;;6223299;23;20183;-89
2024/01/09 01:48:04;;;;;;;15.98;8.13;;;-6.90;1.00;;;;;;6221977;23;20174;-89
2024/01/09 01:50:32;;;;;;;8.40;6.15;;;-6.90;1.00;;;;;;6222702;23;20225;-89
2024/01/09 01:53:01;;;;;;;11.35;6.70;;;-6.90;1.00;;;;;;6223463;23;20186;-89
2024/01/09 01:55:29;;;;;;;11.70;7.05;;;-7.00;1.00;;;;;;6222769;23;20182;-89
2024/01/09 01:57:59;;;;;;;14.90;7.40;;;-7.00;1.00;;;;;;6223130;23;20205;-88
2024/01/09 02:00:28;;;;;;;10.02;6.80;;;-7.10;1.00;;;;;;6222718;23;20187;-88
2024/01/09 02:02:55;;;;;;;9.43;6.03;;;-7.10;1.00;;;;;;6222688;23;20254;-88
2024/01/09 02:05:26;;;;;;;12.77;7.47;;;-7.10;1.00;;;;;;6227567;23;20197;-88
2024/01/09 02:07:54;;;;;;;12.90;6.90;;;-7.10;1.00;;;;;;6243578;22;20159;-86
2024/01/09 02:10:21;;;;;;;11.00;7.53;;;-7.00;1.00;;;;;;6243993;22;20198;-85
2024/01/09 02:12:48;;;;;;;9.30;7.00;;;-7.20;1.00;;;;;;6243970;22;20175;-88
2024/01/09 02:15:16;;;;;;;10.27;6.60;;;-6.70;1.00;;;;;;6243949;22;20206;-89
2024/01/09 02:17:45;;;;;;;7.80;5.85;;;-7.20;1.00;;;;;;6238352;22;20186;-88
2024/01/09 02:20:12;;;;;;;15.45;7.53;;;-7.30;1.00;;;;;;6229272;23;20195;-88
2024/01/09 02:22:43;;;;;;;14.32;7.03;;;-7.20;1.00;;;;;;6226208;23;20720;-88
2024/01/09 02:25:10;;;;;;;11.45;7.40;;;-7.30;1.00;;;;;;6235051;23;20171;-88
2024/01/09 02:27:46;;;;;;;10.90;6.93;;;-7.40;1.00;;;;;;6235800;23;20227;-89
2024/01/09 02:30:15;;;;;;;13.77;6.85;;;-7.40;1.00;;;;;;6236012;23;20235;-88
2024/01/09 02:32:43;;;;;;;12.82;9.20;;;-7.40;1.00;;;;;;6228916;23;20199;-89
2024/01/09 02:35:10;;;;;;;13.43;7.63;;;-6.90;1.00;;;;;;6237065;23;20537;-87
2024/01/09 02:37:37;;;;;;;9.25;7.47;;;-7.00;1.00;;;;;;6237127;23;20179;-88
2024/01/09 02:40:09;;;;;;;12.68;7.70;;;-7.40;1.00;;;;;;6237419;23;20179;-88
2024/01/09 02:42:38;;;;;;;15.48;8.18;;;-7.40;1.00;;;;;;6236154;23;20199;-88
2024/01/09 02:45:05;;;;;;;14.02;8.40;;;-7.40;1.00;;;;;;6230895;23;20175;-88
2024/01/09 02:47:33;;;;;;;11.70;7.43;;;-7.50;1.00;;;;;;6224961;23;20205;-87
2024/01/09 02:50:00;;;;;;;9.90;7.00;;;-7.50;1.00;;;;;;6222914;23;20175;-88
2024/01/09 02:52:26;;;;;;;13.73;7.53;;;-7.50;1.00;;;;;;6220620;23;20215;-87
2024/01/09 02:54:53;;;;;;;10.55;7.80;;;-7.50;1.00;;;;;;6222317;23;20173;-88
2024/01/09 02:57:20;;;;;;;11.63;6.65;;;-7.50;1.00;;;;;;6223002;23;20203;-88
2024/01/09 02:59:47;;;;;;;12.65;8.50;;;-7.50;1.00;;;;;;6227378;23;20199;-88
2024/01/09 03:02:15;;;;;;;9.68;6.88;;;-7.50;1.00;;;;;;6226731;23;20209;-88
2024/01/09 03:04:43;;;;;;;17.17;7.95;;;-7.50;1.00;;;;;;6221498;23;20197;-88
2024/01/09 03:07:10;;;;;;;10.48;7.30;;;-7.60;1.00;;;;;;6222554;23;20185;-88
2024/01/09 03:09:37;;;;;;;12.85;7.18;;;-7.60;1.00;;;;;;6223331;23;20178;-88
2024/01/09 03:12:06;;;;;;;10.90;6.70;;;-7.60;1.00;;;;;;6231336;23;20195;-88
2024/01/09 03:14:42;;;;;;;14.18;8.77;;;-7.60;1.00;;;;;;6234871;23;20182;-88
2024/01/09 03:17:09;;;;;;;13.60;7.07;;;-7.70;1.00;;;;;;6241930;22;20158;-86
2024/01/09 03:19:39;;;;;;;19.98;8.50;;;-7.60;1.00;;;;;;6242875;22;20171;-88
2024/01/09 03:22:10;;;;;;;11.63;7.72;;;-7.70;1.00;;;;;;6239554;23;20198;-88
2024/01/09 03:24:37;;;;;;;10.98;8.00;;;-7.40;1.00;;;;;;6239755;23;20210;-87
2024/01/09 03:27:05;;;;;;;14.30;9.55;;;-7.60;1.00;;;;;;6234653;23;20183;-87
2024/01/09 03:29:35;;;;;;;13.65;8.13;;;-7.60;1.00;;;;;;6231101;23;20201;-88
2024/01/09 03:32:02;;;;;;;12.30;7.38;;;-7.60;1.00;;;;;;6227644;22;20214;-83
2024/01/09 03:34:28;;;;;;;17.83;8.70;;;-7.70;1.00;;;;;;6228493;23;20175;-84
2024/01/09 03:36:55;;;;;;;13.38;7.53;;;-7.70;1.00;;;;;;6228470;23;20183;-84
2024/01/09 03:39:26;;;;;;;17.52;7.63;;;-7.70;1.00;;;;;;6229253;23;20255;-83
2024/01/09 03:41:53;;;;;;;12.38;7.47;;;-7.70;1.00;;;;;;6226639;23;20737;-83
2024/01/09 03:44:20;;;;;;;12.43;8.02;;;-7.70;1.00;;;;;;6226491;23;20179;-83
2024/01/09 03:46:46;;;;;;;14.07;8.48;;;-7.70;1.00;;;;;;6226110;23;20234;-84
2024/01/09 03:49:13;;;;;;;8.05;6.55;;;-7.80;1.00;;;;;;6231218;23;20186;-83
2024/01/09 03:51:40;;;;;;;17.40;8.82;;;-7.80;1.00;;;;;;6227304;23;20226;-83
2024/01/09 03:54:07;;;;;;;17.08;7.82;;;-7.80;1.00;;;;;;6225853;23;20202;-84
2024/01/09 03:56:35;;;;;;;13.95;7.55;;;-7.80;1.00;;;;;;6225234;23;20485;-84
2024/01/09 03:59:02;;;;;;;14.18;7.63;;;-7.90;1.00;;;;;;6225583;23;20231;-84
2024/01/09 04:01:29;;;;;;;12.77;9.05;;;-7.80;1.00;;;;;;6223751;23;20222;-83
2024/01/09 04:03:56;;;;;;;17.08;8.63;;;-7.80;1.00;;;;;;6224045;23;20319;-83
2024/01/09 04:06:23;;;;;;;17.27;7.90;;;-7.90;1.00;;;;;;6224733;23;20175;-83
2024/01/09 04:08:50;;;;;;;13.82;6.85;;;-7.80;1.00;;;;;;6236044;22;20159;-83
2024/01/09 04:11:17;;;;;;;21.13;9.95;;;-8.00;1.00;;;;;;6221528;23;20227;-83
2024/01/09 04:13:45;;;;;;;10.35;8.20;;;-7.90;1.00;;;;;;6225025;23;20234;-84
2024/01/09 04:16:13;;;;;;;11.63;8.43;;;-7.90;1.00;;;;;;6226537;23;20203;-83
2024/01/09 04:18:40;;;;;;;13.90;7.47;;;-8.00;1.00;;;;;;6229864;23;20203;-83
2024/01/09 04:21:07;;;;;;;13.52;7.10;;;-7.90;1.00;;;;;;6232696;23;20198;-84
2024/01/09 04:23:33;;;;;;;14.48;7.63;;;-8.00;1.00;;;;;;6228805;23;20538;-84
2024/01/09 04:26:00;;;;;;;11.07;7.65;;;-8.00;1.00;;;;;;6227115;23;20186;-83
2024/01/09 04:28:27;;;;;;;15.43;8.65;;;-8.00;1.00;;;;;;6227068;23;20203;-83
2024/01/09 04:30:56;;;;;;;9.25;7.32;;;-8.00;1.00;;;;;;6226901;23;20202;-83
2024/01/09 04:33:23;;;;;;;11.90;7.57;;;-8.10;2.80;;;;;;6226648;23;20207;-84
2024/01/09 04:35:51;;;;;;;16.67;8.32;;;-8.00;11.40;;;;;;6234249;23;20175;-85
2024/01/09 04:38:18;;;;;;;11.70;7.07;;;-8.00;12.40;;;;;;6239945;23;20235;-85
2024/01/09 04:40:44;;;;;;;11.73;7.68;;;-8.00;12.90;;;;;;6239523;23;20194;-85
2024/01/09 04:43:11;;;;;;;17.20;7.57;;;-8.00;1.00;;;;;;6235330;23;20195;-85
2024/01/09 04:45:38;;;;;;;14.82;7.45;;;-8.10;1.00;;;;;;6235929;23;20175;-84
2024/01/09 04:48:07;;;;;;;12.18;7.60;;;-8.10;1.00;;;;;;6235054;23;20186;-84
2024/01/09 04:50:34;;;;;;;17.15;9.27;;;-8.10;1.00;;;;;;6233849;23;20312;-84
2024/01/09 04:53:01;;;;;;;14.20;8.48;;;-8.20;1.00;;;;;;6233105;23;20199;-84
2024/01/09 04:55:28;;;;;;;18.80;8.63;;;-8.10;27.10;;;;;;6231818;23;20490;-84
2024/01/09 04:57:55;;;;;;;13.63;7.13;;;-8.10;1.00;;;;;;6228415;23;20179;-84
2024/01/09 05:00:22;;;;;;;19.48;9.63;;;-8.10;1.00;;;;;;6227454;23;20258;-84
2024/01/09 05:02:49;;;;;;;14.27;7.43;;;-8.10;1.00;;;;;;6228227;23;20226;-85
2024/01/09 05:05:17;;;;;;;13.93;8.45;;;-8.10;1.00;;;;;;6243636;23;20182;-84
2024/01/09 05:07:46;;;;;;;14.30;7.88;;;-8.20;1.00;;;;;;6244832;22;20171;-83
2024/01/09 05:10:12;;;;;;;16.60;8.20;;;-8.10;1.00;;;;;;6244119;22;20164;-83
2024/01/09 05:12:39;;;;;;;16.30;9.52;;;-8.10;1.00;;;;;;6244512;22;20230;-83
2024/01/09 05:15:07;;;;;;;18.17;8.02;;;-8.20;1.00;;;;;;6244035;22;20649;-83
2024/01/09 05:17:35;;;;;;;13.52;8.25;;;-8.30;44.80;;;;;;6244473;22;20186;-82
2024/01/09 05:20:02;;;;;;;12.80;9.70;;;-8.30;95.10;;;;;;6243453;23;20159;-83
2024/01/09 05:22:31;;;;;;;16.20;9.05;;;-8.20;99.90;;;;;;6237288;23;20290;-84
2024/01/09 05:24:57;;;;;;;13.90;7.63;;;-8.20;98.50;;;;;;6226454;23;20547;-83
2024/01/09 05:27:24;;;;;;;13.13;7.80;;;-8.20;82.00;;;;;;6228917;23;20202;-84
2024/01/09 05:29:51;;;;;;;20.42;9.50;;;-8.20;22.40;;;;;;6243187;23;20170;-83
2024/01/09 05:32:18;;;;;;;21.75;10.40;;;-8.20;99.90;;;;;;6242006;23;20207;-83
2024/01/09 05:34:44;;;;;;;18.52;9.80;;;-8.20;85.50;;;;;;6241685;23;20186;-83
2024/01/09 05:37:11;;;;;;;17.23;10.48;;;-8.10;97.00;;;;;;6242700;23;20167;-83
2024/01/09 05:39:39;;;;;;;16.05;9.77;;;-8.20;29.60;;;;;;6240486;23;20186;-84
2024/01/09 05:42:07;;;;;;;14.82;8.55;;;-8.20;40.50;;;;;;6228769;23;20266;-84
2024/01/09 05:44:33;;;;;;;15.13;9.20;;;-8.20;45.90;;;;;;6238007;23;20206;-84
2024/01/09 05:47:00;;;;;;;13.00;8.73;;;-8.30;45.30;;;;;;6243418;22;20186;-84
2024/01/09 05:49:27;;;;;;;19.20;10.05;;;-8.20;35.90;;;;;;6243497;23;20167;-84
2024/01/09 05:51:54;;;;;;;17.70;10.07;;;-8.30;69.70;;;;;;6237848;23;20206;-84
2024/01/09 05:54:21;;;;;;;21.40;9.73;;;-8.30;99.90;;;;;;6236092;23;20179;-85
2024/01/09 05:56:49;;;;;;;14.52;8.77;;;-8.30;99.90;;;;;;6228569;23;20186;-85
2024/01/09 05:59:16;;;;;;;17.77;8.68;;;-8.30;99.90;;;;;;6226763;23;20186;-84
2024/01/09 06:01:43;;;;;;;13.85;8.52;;;-8.30;99.90;;;;;;6226990;23;20278;-84
2024/01/09 06:04:10;;;;;;;16.70;7.60;;;-8.30;99.90;;;;;;6226054;23;20179;-84
2024/01/09 06:06:37;;;;;;;15.90;8.60;;;-8.30;99.90;;;;;;6233335;23;20213;-84
2024/01/09 06:09:03;;;;;;;14.70;8.88;;;-8.30;70.50;;;;;;6226816;23;20179;-84
2024/01/09 06:11:30;;;;;;;17.13;9.40;;;-8.30;93.50;;;;;;6224026;23;20182;-83
2024/01/09 06:13:58;;;;;;;16.33;9.75;;;-8.30;99.90;;;;;;6225167;23;20210;-84
2024/01/09 06:16:25;;;;;;;13.90;8.95;;;-8.40;99.90;;;;;;6225656;23;20186;-84
2024/01/09 06:18:52;;;;;;;17.48;10.50;;;-8.30;99.90;;;;;;6230492;23;20179;-83
2024/01/09 06:21:19;;;;;;;23.92;11.25;;;-8.00;99.90;;;;;;6240576;23;20182;-83
2024/01/09 06:23:48;;;;;;;9.30;7.53;;;-8.20;99.90;;;;;;6231295;23;20513;-84
2024/01/09 06:26:15;;;;;;;23.58;10.27;;;-8.20;99.90;;;;;;6231097;23;20237;-84
2024/01/09 06:28:43;;;;;;;18.63;10.25;;;-8.20;99.90;;;;;;6227256;23;20186;-84
2024/01/09 06:31:11;;;;;;;21.25;10.13;;;-8.20;99.90;;;;;;6228174;23;20210;-84
2024/01/09 06:33:38;;;;;;;16.90;10.05;;;-8.30;99.90;;;;;;6227591;23;20267;-85
2024/01/09 06:36:05;;;;;;;19.92;10.20;;;-8.30;99.90;;;;;;6226962;23;20206;-85
2024/01/09 06:38:32;;;;;;;17.38;10.23;;;-8.30;93.30;;;;;;6228316;23;20190;-85
2024/01/09 06:40:59;;;;;;;15.10;9.73;;;-8.30;99.90;;;;;;6231707;23;20177;-84
2024/01/09 06:43:26;;;;;;;16.67;9.35;;;-8.20;99.90;;;;;;6241405;23;20222;-85
2024/01/09 06:45:53;;;;;;;18.98;10.13;;;-8.20;37.80;;;;;;6243508;22;20166;-83
2024/01/09 06:48:21;;;;;;;17.17;10.05;;;-8.20;41.10;;;;;;6243173;22;20170;-84
2024/01/09 06:50:48;;;;;;;18.55;10.45;;;-8.20;84.60;;;;;;6242701;22;20218;-84
2024/01/09 06:53:15;;;;;;;14.45;9.70;;;-8.30;99.90;;;;;;6230616;22;20222;-88
2024/01/09 06:55:42;;;;;;;13.30;10.13;;;-8.40;99.90;;;;;;6230920;23;20186;-87
2024/01/09 06:58:09;;;;;;;19.20;8.95;;;-8.40;99.90;;;;;;6240807;23;20179;-86
2024/01/09 07:00:36;;;;;;;23.73;11.25;;;-8.40;99.90;;;;;;6231477;23;20171;-86
2024/01/09 07:03:01;;;;;;;19.30;10.43;;;-8.30;99.90;;;;;;6227635;23;20553;-86
2024/01/09 07:05:30;;;;;;;18.65;9.20;;;-8.30;99.90;;;;;;6225624;23;20182;-87
2024/01/09 07:07:57;;;;;;;18.08;9.95;;;-8.40;99.90;;;;;;6223946;23;20217;-86
2024/01/09 07:10:24;;;;;;;15.15;9.93;;;-8.40;99.90;;;;;;6222030;23;20257;-86
2024/01/09 07:12:51;;;;;;;18.48;10.88;;;-8.40;99.90;;;;;;6220923;23;20222;-86
2024/01/09 07:15:18;;;;;;;19.95;10.07;;;-8.40;99.90;;;;;;6220671;23;20645;-87
2024/01/09 07:17:46;;;;;;;17.55;10.02;;;-8.30;99.90;;;;;;6220671;23;20214;-86
2024/01/09 07:20:13;;;;;;;13.10;9.23;;;-8.20;99.90;;;;;;6222557;23;20171;-86
2024/01/09 07:22:41;;;;;;;18.40;9.70;;;-8.30;99.90;;;;;;6223083;23;20285;-86
2024/01/09 07:25:09;;;;;;;16.55;10.90;;;-8.20;99.90;;;;;;6242553;22;20179;-84
2024/01/09 07:27:36;;;;;;;19.10;10.00;;;-8.20;99.90;;;;;;6243168;22;20175;-84
2024/01/09 07:30:03;;;;;;;18.63;11.02;;;-8.20;99.90;;;;;;6243629;22;20186;-85
2024/01/09 07:32:30;;;;;;;13.75;8.52;;;-8.40;96.80;;;;;;6241839;22;20207;-85
2024/01/09 07:34:57;;;;;;;19.58;10.98;;;-8.30;99.90;;;;;;6243543;22;20179;-86
2024/01/09 07:37:24;;;;;;;16.67;10.32;;;-8.40;99.90;;;;;;6243318;22;20175;-85
2024/01/09 07:39:55;;;;;;;18.52;10.38;;;-8.40;99.90;;;;;;6243600;22;20163;-85
2024/01/09 07:42:22;;;;;;;19.85;8.93;;;-8.30;99.90;;;;;;6243400;22;20198;-85
2024/01/09 07:44:49;;;;;;;15.70;9.38;;;-8.30;99.90;;;;;;6242528;23;20190;-88
2024/01/09 07:47:16;;;;;;;26.17;10.82;;;-8.40;99.90;;;;;;6243769;23;20163;-83
2024/01/09 07:49:43;;;;;;;15.63;10.40;;;-8.40;99.90;;;;;;6238925;22;20167;-84
2024/01/09 07:52:10;;;;;;;19.30;10.90;;;-8.50;99.90;;;;;;6233885;23;20191;-84
2024/01/09 07:54:37;;;;;;;18.73;13.05;;;-8.40;99.90;;;;;;6237510;23;20210;-84
2024/01/09 07:57:06;;;;;;;17.33;10.05;;;-8.40;99.90;;;;;;6234539;23;20190;-84
2024/01/09 07:59:32;;;;;;;21.38;12.07;;;-8.30;99.90;;;;;;6233357;23;20179;-84
2024/01/09 08:02:01;;;;;;;20.80;10.40;;;-8.30;94.00;;;;;;6237853;23;20234;-84
2024/01/09 08:04:28;;;;;;;16.65;9.40;;;-8.40;99.90;;;;;;6240773;23;20183;-84
2024/01/09 08:06:55;;;;;;;19.48;10.75;;;-8.40;99.90;;;;;;6238343;23;20206;-85
2024/01/09 08:09:22;;;;;;;20.55;12.63;;;-8.40;99.90;;;;;;6236551;23;20692;-84
2024/01/09 08:11:49;;;;;;;27.88;12.50;;;-8.40;99.90;;;;;;6234084;23;20206;-84
2024/01/09 08:14:17;;;;;;;28.10;12.60;;;-8.30;99.90;;;;;;6231315;23;20202;-85
2024/01/09 08:16:43;;;;;;;23.67;13.20;;;-8.30;55.00;;;;;;6229572;23;20667;-84
2024/01/09 08:19:10;;;;;;;26.48;14.15;;;-8.30;99.90;;;;;;6231862;23;20202;-84
2024/01/09 08:21:37;;;;;;;19.58;11.30;;;-8.30;35.00;;;;;;6228341;23;20223;-84
2024/01/09 08:24:05;;;;;;;23.00;11.93;;;-8.20;2.00;;;;;;6227644;23;20186;-84
2024/01/09 08:26:32;;;;;;;25.80;13.15;;;-8.30;1.00;;;;;;6225985;23;20186;-83
2024/01/09 08:29:00;;;;;;;17.25;11.40;;;-8.20;9.70;;;;;;6226362;23;20642;-84
2024/01/09 08:31:28;;;;;;;23.77;12.77;;;-8.20;23.50;;;;;;6227860;23;20179;-84
2024/01/09 08:33:55;;;;;;;23.85;12.27;;;-8.20;1.00;;;;;;6228157;23;20175;-84
2024/01/09 08:36:21;;;;;;;23.98;12.23;;;-8.10;1.00;;;;;;6229068;23;20544;-84
2024/01/09 08:38:48;;;;;;;22.48;12.73;;;-8.20;1.00;;;;;;6227280;23;20185;-84
2024/01/09 08:41:17;;;;;;;18.17;11.65;;;-8.30;1.00;;;;;;6237811;23;20163;-84
2024/01/09 08:43:44;;;;;;;25.27;12.60;;;-8.20;9.80;;;;;;6242107;23;20199;-84
2024/01/09 08:46:11;;;;;;;16.88;11.52;;;-8.20;1.00;;;;;;6240968;23;20186;-83
2024/01/09 08:48:39;;;;;;;31.20;13.73;;;-8.10;1.00;;;;;;6227859;23;20183;-85
2024/01/09 08:51:06;;;;;;;16.17;11.18;;;-8.00;1.00;;;;;;6226451;23;20523;-84
2024/01/09 08:53:33;;;;;;;28.85;12.20;;;-8.00;1.00;;;;;;6241786;22;20210;-83
2024/01/09 08:56:00;;;;;;;23.20;13.10;;;-7.90;1.00;;;;;;6244823;22;20147;-83
2024/01/09 08:58:27;;;;;;;23.27;12.70;;;-7.90;1.00;;;;;;6244381;22;20171;-82
2024/01/09 09:00:54;;;;;;;33.90;14.93;;;-7.90;1.00;;;;;;6244885;22;20186;-81
2024/01/09 09:03:21;;;;;;;30.42;14.68;;;-7.90;1.00;;;;;;6244526;22;20183;-82
2024/01/09 09:05:49;;;;;;;30.77;12.68;;;-7.90;1.00;;;;;;6244957;22;20179;-83
2024/01/09 09:08:16;;;;;;;25.98;13.50;;;-7.90;1.00;;;;;;6244869;22;20185;-83
2024/01/09 09:10:43;;;;;;;22.90;13.20;;;-7.80;1.00;;;;;;6238686;23;20167;-84
2024/01/09 09:13:10;;;;;;;24.92;12.63;;;-7.80;1.00;;;;;;6242680;22;20210;-84
2024/01/09 09:15:36;;;;;;;23.15;13.32;;;-7.80;1.00;;;;;;6233619;23;20187;-84
2024/01/09 09:18:03;;;;;;;24.33;12.80;;;-7.80;1.00;;;;;;6241710;22;20200;-83
2024/01/09 09:20:30;;;;;;;25.75;14.52;;;-7.80;1.00;;;;;;6241805;23;20179;-84
2024/01/09 09:22:59;;;;;;;23.92;12.40;;;-7.80;1.00;;;;;;6230203;23;20696;-86
2024/01/09 09:25:26;;;;;;;28.85;14.30;;;-7.80;1.00;;;;;;6230603;23;20175;-85
2024/01/09 09:27:53;;;;;;;24.33;13.45;;;-7.70;1.00;;;;;;6229250;23;20254;-84
2024/01/09 09:30:20;;;;;;;27.08;13.68;;;-7.70;1.00;;;;;;6228664;23;20171;-85
2024/01/09 09:32:47;;;;;;;24.60;13.50;;;-7.60;1.00;;;;;;6227255;23;20258;-86
2024/01/09 09:35:14;;;;;;;23.88;13.73;;;-7.60;1.00;;;;;;6227232;23;20179;-85
2024/01/09 09:37:40;;;;;;;22.65;13.40;;;-7.50;1.00;;;;;;6229952;23;20225;-84
2024/01/09 09:40:12;;;;;;;29.33;15.15;;;-7.50;1.00;;;;;;6226906;23;20207;-83
2024/01/09 09:42:40;;;;;;;27.30;14.90;;;-7.40;1.00;;;;;;6224039;23;20637;-84
2024/01/09 09:45:11;;;;;;;16.52;12.68;;;-7.50;1.00;;;;;;6224327;23;20186;-84
2024/01/09 09:47:39;;;;;;;20.65;13.73;;;-7.40;1.00;;;;;;6226026;23;20194;-83
2024/01/09 09:50:09;;;;;;;27.02;14.60;;;-7.30;1.00;;;;;;6223688;23;20185;-84
2024/01/09 09:52:41;;;;;;;26.00;14.27;;;-7.30;1.00;;;;;;6225942;23;20229;-84
2024/01/09 09:55:10;;;;;;;21.70;13.88;;;-7.30;1.00;;;;;;6226340;23;20178;-84
2024/01/09 09:57:36;;;;;;;28.98;16.02;;;-7.30;1.00;;;;;;6225574;23;20226;-84
2024/01/09 10:00:05;;;;;;;34.13;15.13;;;-7.30;1.00;;;;;;6228303;23;20179;-84
2024/01/09 10:02:34;;;;;;;24.83;12.68;;;-7.10;1.00;;;;;;6236363;23;20199;-83
2024/01/09 10:05:10;;;;;;;31.75;15.50;;;-7.20;1.00;;;;;;6237716;23;20186;-84
2024/01/09 10:07:39;;;;;;;28.77;14.07;;;-7.10;1.00;;;;;;6241784;22;20159;-83
2024/01/09 10:10:09;;;;;;;28.08;16.42;;;-7.00;1.00;;;;;;6240419;23;20239;-83
2024/01/09 10:12:36;;;;;;;32.58;13.30;;;-7.00;1.00;;;;;;6224179;23;20202;-84
2024/01/09 10:15:07;;;;;;;23.50;14.75;;;-6.90;1.00;;;;;;6223611;23;20262;-84
2024/01/09 10:17:34;;;;;;;25.90;13.40;;;-6.80;1.00;;;;;;6223755;23;20170;-84
2024/01/09 10:20:01;;;;;;;31.35;15.38;;;-6.70;1.00;;;;;;6223438;23;20179;-84
2024/01/09 10:22:31;;;;;;;25.75;14.30;;;-6.70;1.00;;;;;;6229149;23;20199;-84
2024/01/09 10:24:58;;;;;;;20.23;13.40;;;-6.70;1.00;;;;;;6229208;23;20282;-84
2024/01/09 10:27:27;;;;;;;25.55;13.80;;;-6.60;1.00;;;;;;6221835;23;20550;-83
2024/01/09 10:29:54;;;;;;;21.60;13.45;;;-6.50;1.00;;;;;;6222879;23;20237;-83
2024/01/09 10:32:21;;;;;;;25.13;13.90;;;-6.50;1.00;;;;;;6223039;23;20253;-83
2024/01/09 10:34:48;;;;;;;27.00;13.05;;;-6.50;1.00;;;;;;6224506;23;20610;-84
2024/01/09 10:37:15;;;;;;;30.92;15.27;;;-6.50;1.00;;;;;;6223460;23;20249;-84
2024/01/09 10:39:42;;;;;;;26.70;14.52;;;-6.40;1.00;;;;;;6223709;23;20179;-84
2024/01/09 10:42:10;;;;;;;22.48;12.98;;;-6.30;1.00;;;;;;6225005;23;20256;-84
2024/01/09 10:44:41;;;;;;;25.58;14.55;;;-6.30;1.00;;;;;;6231926;23;20199;-84
2024/01/09 10:47:10;;;;;;;23.98;14.30;;;-6.20;1.00;;;;;;6239404;23;20163;-84
2024/01/09 10:49:39;;;;;;;24.80;14.30;;;-6.20;1.00;;;;;;6239394;23;20189;-83
2024/01/09 10:52:11;;;;;;;26.85;14.50;;;-6.10;1.00;;;;;;6229137;23;20218;-84
2024/01/09 10:54:40;;;;;;;26.50;15.95;;;-6.00;1.00;;;;;;6224618;23;20155;-83
2024/01/09 10:57:10;;;;;;;31.45;14.18;;;-6.00;1.00;;;;;;6224519;23;20237;-83
2024/01/09 10:59:41;;;;;;;19.20;13.98;;;-6.00;1.00;;;;;;6225133;23;20181;-83
2024/01/09 11:02:16;;;;;;;25.98;14.60;;;-5.90;1.00;;;;;;6226154;23;20479;-84
2024/01/09 11:04:43;;;;;;;24.98;13.90;;;-5.90;1.00;;;;;;6234316;23;20185;-84
2024/01/09 11:07:14;;;;;;;24.77;13.68;;;-5.80;1.00;;;;;;6232992;23;20262;-86
2024/01/09 11:09:43;;;;;;;29.63;15.45;;;-5.70;1.00;;;;;;6226443;23;20159;-84
2024/01/09 11:12:14;;;;;;;28.48;15.35;;;-5.60;99.90;;;;;;6225508;23;20199;-83
2024/01/09 11:14:46;;;;;;;19.45;12.90;;;-5.70;99.90;;;;;;6226227;23;20160;-84
2024/01/09 11:17:16;;;;;;;23.35;13.45;;;-5.60;99.90;;;;;;6225215;23;20190;-84
2024/01/09 11:19:44;;;;;;;28.15;13.52;;;-5.40;99.90;;;;;;6223826;23;20163;-83
2024/01/09 11:22:15;;;;;;;21.90;15.32;;;-5.30;99.90;;;;;;6226607;23;20199;-85
2024/01/09 11:24:42;;;;;;;26.17;13.57;;;-5.30;99.90;;;;;;6237452;23;20191;-84
2024/01/09 11:27:13;;;;;;;20.45;13.68;;;-5.30;99.90;;;;;;6238774;23;20187;-84
2024/01/09 11:29:52;;;;;;;30.35;16.25;;;-5.40;99.90;;;;;;6241778;23;20202;-83
2024/01/09 11:32:20;;;;;;;25.48;14.57;;;-5.40;99.90;;;;;;6234724;23;20206;-83
2024/01/09 11:34:48;;;;;;;25.13;15.32;;;-5.40;99.90;;;;;;6233065;23;20490;-82
2024/01/09 11:37:18;;;;;;;19.50;13.52;;;-5.40;99.90;;;;;;6230193;23;20262;-83
2024/01/09 11:39:45;;;;;;;26.20;15.68;;;-5.30;99.90;;;;;;6229547;23;20164;-84
2024/01/09 11:42:12;;;;;;;31.52;14.45;;;-5.20;99.90;;;;;;6228328;23;20199;-83
2024/01/09 11:44:39;;;;;;;27.08;16.02;;;-5.10;99.90;;;;;;6230634;23;20278;-84
2024/01/09 11:47:07;;;;;;;29.73;14.75;;;-5.00;99.90;;;;;;6231029;23;20179;-84
2024/01/09 11:49:34;;;;;;;25.48;14.10;;;-5.00;99.90;;;;;;6231942;23;20179;-84
2024/01/09 11:52:01;;;;;;;21.50;13.50;;;-4.90;99.90;;;;;;6231719;23;20195;-84
2024/01/09 11:54:28;;;;;;;27.00;13.90;;;-4.90;99.90;;;;;;6231382;23;20183;-83
2024/01/09 11:56:56;;;;;;;22.50;16.35;;;-4.90;99.90;;;;;;6231373;23;20555;-83
2024/01/09 11:59:23;;;;;;;26.15;15.23;;;-4.80;99.90;;;;;;6229671;23;20179;-85
2024/01/09 12:01:50;;;;;;;23.55;15.85;;;-4.80;99.90;;;;;;6227530;23;20205;-84
2024/01/09 12:04:18;;;;;;;24.88;13.73;;;-4.70;99.90;;;;;;6226295;23;20210;-84
2024/01/09 12:06:47;;;;;;;24.63;15.18;;;-4.70;99.90;;;;;;6234608;23;20186;-84
2024/01/09 12:09:14;;;;;;;25.95;14.77;;;-4.70;99.90;;;;;;6234003;23;20189;-84
2024/01/09 12:11:41;;;;;;;24.70;15.30;;;-4.80;99.90;;;;;;6232944;23;20199;-83
2024/01/09 12:14:07;;;;;;;27.52;14.82;;;-4.80;99.90;;;;;;6230216;23;20226;-84
2024/01/09 12:16:35;;;;;;;28.23;15.38;;;-4.80;99.90;;;;;;6235927;22;20163;-83
2024/01/09 12:19:02;;;;;;;30.10;15.20;;;-4.70;99.90;;;;;;6244615;22;20206;-83
2024/01/09 12:21:32;;;;;;;27.17;14.57;;;-4.70;99.90;;;;;;6234693;23;20183;-83
2024/01/09 12:24:00;;;;;;;26.20;13.50;;;-4.60;99.90;;;;;;6230694;23;20581;-85
2024/01/09 12:26:28;;;;;;;18.92;13.50;;;-4.50;99.90;;;;;;6223611;23;20210;-85
2024/01/09 12:28:56;;;;;;;25.63;14.70;;;-4.60;99.90;;;;;;6229982;23;20171;-84
2024/01/09 12:31:24;;;;;;;31.13;14.52;;;-4.50;99.90;;;;;;6230597;23;20179;-83
2024/01/09 12:33:52;;;;;;;22.05;13.82;;;-4.50;99.90;;;;;;6226035;23;20182;-85
2024/01/09 12:36:19;;;;;;;21.35;13.50;;;-4.40;99.90;;;;;;6226121;23;20667;-84
2024/01/09 12:38:47;;;;;;;19.38;13.57;;;-4.30;99.90;;;;;;6235254;23;20186;-84
2024/01/09 12:41:14;;;;;;;26.80;13.80;;;-4.30;99.90;;;;;;6235009;23;20186;-84